sensor_id;sensor_type;location;lat;lon;timestamp;P1;durP1;ratioP1;P2;durP2;ratioP2
25341;SDS011;13298;48.792;9.154;2023-09-30T00:01:56;5.75;;;2.90;;
25341;SDS011;13298;48.792;9.154;2023-09-30T00:04:21;7.93;;;3.60;;
25341;SDS011;13298;48.792;9.154;2023-09-30T00:06:47;8.98;;;3.42;;
25341;SDS011;13298;48.792;9.154;2023-09-30T00:09:13;6.57;;;2.72;;
25341;SDS011;13298;48.792;9.154;2023-09-30T00:11:39;7.20;;;2.95;;
25341;SDS011;13298;48.792;9.154;2023-09-30T00:14:05;5.47;;;2.42;;
25341;SDS011;13298;48.792;9.154;2023-09-30T00:16:30;7.97;;;2.88;;
25341;SDS011;13298;48.792;9.154;2023-09-30T00:18:56;8.15;;;2.42;;
25341;SDS011;13298;48.792;9.154;2023-09-30T00:21:23;7.20;;;2.92;;
25341;SDS011;13298;48.792;9.154;2023-09-30T00:23:49;7.97;;;3.30;;
25341;SDS011;13298;48.792;9.154;2023-09-30T00:26:15;8.75;;;3.42;;
25341;SDS011;13298;48.792;9.154;2023-09-30T00:28:41;9.48;;;3.10;;
25341;SDS011;13298;48.792;9.154;2023-09-30T00:31:07;7.80;;;3.38;;
25341;SDS011;13298;48.792;9.154;2023-09-30T00:33:36;8.13;;;3.00;;
25341;SDS011;13298;48.792;9.154;2023-09-30T00:36:05;8.02;;;3.20;;
25341;SDS011;13298;48.792;9.154;2023-09-30T00:38:35;6.75;;;2.72;;
25341;SDS011;13298;48.792;9.154;2023-09-30T00:41:01;7.20;;;3.05;;
25341;SDS011;13298;48.792;9.154;2023-09-30T00:43:27;4.82;;;2.50;;
25341;SDS011;13298;48.792;9.154;2023-09-30T00:46:04;6.13;;;2.65;;
25341;SDS011;13298;48.792;9.154;2023-09-30T00:48:43;6.93;;;2.70;;
25341;SDS011;13298;48.792;9.154;2023-09-30T00:51:09;7.82;;;2.70;;
25341;SDS011;13298;48.792;9.154;2023-09-30T00:53:35;6.35;;;2.47;;
25341;SDS011;13298;48.792;9.154;2023-09-30T00:56:02;5.18;;;2.40;;
25341;SDS011;13298;48.792;9.154;2023-09-30T00:58:28;7.15;;;2.33;;
25341;SDS011;13298;48.792;9.154;2023-09-30T01:00:56;3.72;;;1.60;;
25341;SDS011;13298;48.792;9.154;2023-09-30T01:03:22;6.65;;;2.20;;
25341;SDS011;13298;48.792;9.154;2023-09-30T01:05:48;3.75;;;1.85;;
25341;SDS011;13298;48.792;9.154;2023-09-30T01:08:14;4.13;;;1.92;;
25341;SDS011;13298;48.792;9.154;2023-09-30T01:10:41;5.13;;;2.50;;
25341;SDS011;13298;48.792;9.154;2023-09-30T01:13:08;2.78;;;1.65;;
25341;SDS011;13298;48.792;9.154;2023-09-30T01:15:33;4.95;;;2.10;;
25341;SDS011;13298;48.792;9.154;2023-09-30T01:17:59;6.07;;;2.10;;
25341;SDS011;13298;48.792;9.154;2023-09-30T01:20:25;3.10;;;1.65;;
25341;SDS011;13298;48.792;9.154;2023-09-30T01:22:52;3.42;;;1.73;;
25341;SDS011;13298;48.792;9.154;2023-09-30T01:25:20;3.72;;;1.67;;
25341;SDS011;13298;48.792;9.154;2023-09-30T01:27:46;5.03;;;2.40;;
25341;SDS011;13298;48.792;9.154;2023-09-30T01:30:12;3.38;;;2.10;;
25341;SDS011;13298;48.792;9.154;2023-09-30T01:32:38;5.15;;;2.15;;
25341;SDS011;13298;48.792;9.154;2023-09-30T01:35:05;5.13;;;1.88;;
25341;SDS011;13298;48.792;9.154;2023-09-30T01:37:31;4.57;;;1.95;;
25341;SDS011;13298;48.792;9.154;2023-09-30T01:39:57;3.65;;;2.05;;
25341;SDS011;13298;48.792;9.154;2023-09-30T01:42:23;4.13;;;2.20;;
25341;SDS011;13298;48.792;9.154;2023-09-30T01:44:48;5.70;;;2.05;;
25341;SDS011;13298;48.792;9.154;2023-09-30T01:47:14;4.13;;;2.33;;
25341;SDS011;13298;48.792;9.154;2023-09-30T01:49:40;3.63;;;2.10;;
25341;SDS011;13298;48.792;9.154;2023-09-30T01:52:06;3.10;;;2.10;;
25341;SDS011;13298;48.792;9.154;2023-09-30T01:54:31;4.43;;;2.38;;
25341;SDS011;13298;48.792;9.154;2023-09-30T01:56:57;3.58;;;1.90;;
25341;SDS011;13298;48.792;9.154;2023-09-30T01:59:23;6.60;;;2.50;;
25341;SDS011;13298;48.792;9.154;2023-09-30T02:01:49;4.32;;;2.33;;
25341;SDS011;13298;48.792;9.154;2023-09-30T02:04:15;5.38;;;1.80;;
25341;SDS011;13298;48.792;9.154;2023-09-30T02:06:42;4.88;;;2.10;;
25341;SDS011;13298;48.792;9.154;2023-09-30T02:09:08;4.30;;;2.05;;
25341;SDS011;13298;48.792;9.154;2023-09-30T02:11:34;5.18;;;2.47;;
25341;SDS011;13298;48.792;9.154;2023-09-30T02:14:02;2.38;;;1.70;;
25341;SDS011;13298;48.792;9.154;2023-09-30T02:16:31;3.50;;;1.88;;
25341;SDS011;13298;48.792;9.154;2023-09-30T02:18:56;6.07;;;2.20;;
25341;SDS011;13298;48.792;9.154;2023-09-30T02:21:23;3.97;;;2.17;;
25341;SDS011;13298;48.792;9.154;2023-09-30T02:23:49;3.15;;;1.92;;
25341;SDS011;13298;48.792;9.154;2023-09-30T02:26:15;5.22;;;2.00;;
25341;SDS011;13298;48.792;9.154;2023-09-30T02:28:41;5.28;;;2.38;;
25341;SDS011;13298;48.792;9.154;2023-09-30T02:31:06;4.68;;;2.38;;
25341;SDS011;13298;48.792;9.154;2023-09-30T02:33:33;6.85;;;2.45;;
25341;SDS011;13298;48.792;9.154;2023-09-30T02:36:02;5.38;;;2.42;;
25341;SDS011;13298;48.792;9.154;2023-09-30T02:38:30;4.82;;;2.33;;
25341;SDS011;13298;48.792;9.154;2023-09-30T02:40:56;5.82;;;2.65;;
25341;SDS011;13298;48.792;9.154;2023-09-30T02:43:22;4.18;;;2.38;;
25341;SDS011;13298;48.792;9.154;2023-09-30T02:45:47;5.80;;;2.63;;
25341;SDS011;13298;48.792;9.154;2023-09-30T02:48:13;5.28;;;2.70;;
25341;SDS011;13298;48.792;9.154;2023-09-30T02:50:41;6.60;;;3.10;;
25341;SDS011;13298;48.792;9.154;2023-09-30T02:53:09;4.43;;;2.65;;
25341;SDS011;13298;48.792;9.154;2023-09-30T02:55:37;5.50;;;2.50;;
25341;SDS011;13298;48.792;9.154;2023-09-30T02:58:03;5.68;;;2.60;;
25341;SDS011;13298;48.792;9.154;2023-09-30T03:00:28;8.27;;;2.80;;
25341;SDS011;13298;48.792;9.154;2023-09-30T03:02:59;7.60;;;3.13;;
25341;SDS011;13298;48.792;9.154;2023-09-30T03:05:27;5.30;;;2.60;;
25341;SDS011;13298;48.792;9.154;2023-09-30T03:07:55;7.20;;;3.47;;
25341;SDS011;13298;48.792;9.154;2023-09-30T03:10:21;7.30;;;2.80;;
25341;SDS011;13298;48.792;9.154;2023-09-30T03:12:57;6.38;;;2.88;;
25341;SDS011;13298;48.792;9.154;2023-09-30T03:15:27;4.65;;;2.88;;
25341;SDS011;13298;48.792;9.154;2023-09-30T03:17:55;7.00;;;2.47;;
25341;SDS011;13298;48.792;9.154;2023-09-30T03:20:22;4.32;;;2.72;;
25341;SDS011;13298;48.792;9.154;2023-09-30T03:22:50;10.68;;;3.38;;
25341;SDS011;13298;48.792;9.154;2023-09-30T03:25:16;6.85;;;3.00;;
25341;SDS011;13298;48.792;9.154;2023-09-30T03:27:44;4.88;;;2.95;;
25341;SDS011;13298;48.792;9.154;2023-09-30T03:30:13;5.10;;;2.88;;
25341;SDS011;13298;48.792;9.154;2023-09-30T03:32:41;5.75;;;2.70;;
25341;SDS011;13298;48.792;9.154;2023-09-30T03:35:08;5.88;;;2.80;;
25341;SDS011;13298;48.792;9.154;2023-09-30T03:37:36;5.43;;;3.00;;
25341;SDS011;13298;48.792;9.154;2023-09-30T03:40:02;5.38;;;2.70;;
25341;SDS011;13298;48.792;9.154;2023-09-30T03:42:37;6.10;;;2.67;;
25341;SDS011;13298;48.792;9.154;2023-09-30T03:45:04;4.53;;;2.50;;
25341;SDS011;13298;48.792;9.154;2023-09-30T03:47:34;3.78;;;2.30;;
25341;SDS011;13298;48.792;9.154;2023-09-30T03:50:01;6.93;;;2.90;;
25341;SDS011;13298;48.792;9.154;2023-09-30T03:52:28;4.25;;;2.47;;
25341;SDS011;13298;48.792;9.154;2023-09-30T03:54:57;5.13;;;2.60;;
25341;SDS011;13298;48.792;9.154;2023-09-30T03:57:24;4.32;;;2.38;;
25341;SDS011;13298;48.792;9.154;2023-09-30T03:59:50;4.78;;;2.20;;
25341;SDS011;13298;48.792;9.154;2023-09-30T04:02:18;5.38;;;2.83;;
25341;SDS011;13298;48.792;9.154;2023-09-30T04:04:44;5.65;;;2.22;;
25341;SDS011;13298;48.792;9.154;2023-09-30T04:07:11;3.92;;;2.60;;
25341;SDS011;13298;48.792;9.154;2023-09-30T04:09:37;6.38;;;2.95;;
25341;SDS011;13298;48.792;9.154;2023-09-30T04:12:03;5.93;;;2.38;;
25341;SDS011;13298;48.792;9.154;2023-09-30T04:14:29;5.38;;;2.75;;
25341;SDS011;13298;48.792;9.154;2023-09-30T04:16:55;6.43;;;3.13;;
25341;SDS011;13298;48.792;9.154;2023-09-30T04:19:20;6.97;;;2.50;;
25341;SDS011;13298;48.792;9.154;2023-09-30T04:21:47;4.88;;;2.47;;
25341;SDS011;13298;48.792;9.154;2023-09-30T04:24:12;7.65;;;2.63;;
25341;SDS011;13298;48.792;9.154;2023-09-30T04:26:38;5.32;;;2.88;;
25341;SDS011;13298;48.792;9.154;2023-09-30T04:29:05;4.75;;;2.67;;
25341;SDS011;13298;48.792;9.154;2023-09-30T04:31:32;5.95;;;2.97;;
25341;SDS011;13298;48.792;9.154;2023-09-30T04:33:58;5.05;;;2.90;;
25341;SDS011;13298;48.792;9.154;2023-09-30T04:36:24;5.43;;;2.50;;
25341;SDS011;13298;48.792;9.154;2023-09-30T04:38:50;7.15;;;2.75;;
25341;SDS011;13298;48.792;9.154;2023-09-30T04:41:15;6.93;;;2.80;;
25341;SDS011;13298;48.792;9.154;2023-09-30T04:43:41;4.93;;;2.33;;
25341;SDS011;13298;48.792;9.154;2023-09-30T04:46:08;4.95;;;2.42;;
25341;SDS011;13298;48.792;9.154;2023-09-30T04:48:34;5.63;;;2.65;;
25341;SDS011;13298;48.792;9.154;2023-09-30T04:51:00;9.25;;;2.70;;
25341;SDS011;13298;48.792;9.154;2023-09-30T04:53:29;6.80;;;3.08;;
25341;SDS011;13298;48.792;9.154;2023-09-30T04:55:55;4.63;;;2.40;;
25341;SDS011;13298;48.792;9.154;2023-09-30T04:58:21;5.63;;;2.72;;
25341;SDS011;13298;48.792;9.154;2023-09-30T05:00:48;7.18;;;2.53;;
25341;SDS011;13298;48.792;9.154;2023-09-30T05:03:14;5.72;;;2.80;;
25341;SDS011;13298;48.792;9.154;2023-09-30T05:05:40;6.20;;;2.72;;
25341;SDS011;13298;48.792;9.154;2023-09-30T05:08:06;7.63;;;2.30;;
25341;SDS011;13298;48.792;9.154;2023-09-30T05:10:32;7.50;;;2.78;;
25341;SDS011;13298;48.792;9.154;2023-09-30T05:12:58;4.85;;;2.58;;
25341;SDS011;13298;48.792;9.154;2023-09-30T05:15:24;7.32;;;2.55;;
25341;SDS011;13298;48.792;9.154;2023-09-30T05:17:50;4.65;;;2.47;;
25341;SDS011;13298;48.792;9.154;2023-09-30T05:20:16;6.00;;;2.75;;
25341;SDS011;13298;48.792;9.154;2023-09-30T05:22:42;5.47;;;2.47;;
25341;SDS011;13298;48.792;9.154;2023-09-30T05:25:12;4.32;;;2.63;;
25341;SDS011;13298;48.792;9.154;2023-09-30T05:27:41;6.43;;;2.85;;
25341;SDS011;13298;48.792;9.154;2023-09-30T05:30:07;3.58;;;2.42;;
25341;SDS011;13298;48.792;9.154;2023-09-30T05:32:34;5.13;;;2.55;;
25341;SDS011;13298;48.792;9.154;2023-09-30T05:35:03;5.72;;;3.17;;
25341;SDS011;13298;48.792;9.154;2023-09-30T05:37:30;6.40;;;2.70;;
25341;SDS011;13298;48.792;9.154;2023-09-30T05:39:56;7.00;;;2.75;;
25341;SDS011;13298;48.792;9.154;2023-09-30T05:42:22;5.60;;;2.78;;
25341;SDS011;13298;48.792;9.154;2023-09-30T05:44:47;5.55;;;2.47;;
25341;SDS011;13298;48.792;9.154;2023-09-30T05:47:13;7.05;;;2.90;;
25341;SDS011;13298;48.792;9.154;2023-09-30T05:49:40;6.55;;;3.13;;
25341;SDS011;13298;48.792;9.154;2023-09-30T05:52:06;3.97;;;2.60;;
25341;SDS011;13298;48.792;9.154;2023-09-30T05:54:32;6.20;;;2.58;;
25341;SDS011;13298;48.792;9.154;2023-09-30T05:56:58;5.10;;;2.50;;
25341;SDS011;13298;48.792;9.154;2023-09-30T05:59:25;3.92;;;2.33;;
25341;SDS011;13298;48.792;9.154;2023-09-30T06:01:53;4.60;;;2.60;;
25341;SDS011;13298;48.792;9.154;2023-09-30T06:04:18;6.40;;;2.47;;
25341;SDS011;13298;48.792;9.154;2023-09-30T06:06:44;4.53;;;2.90;;
25341;SDS011;13298;48.792;9.154;2023-09-30T06:09:10;3.22;;;2.50;;
25341;SDS011;13298;48.792;9.154;2023-09-30T06:11:36;6.30;;;2.63;;
25341;SDS011;13298;48.792;9.154;2023-09-30T06:14:02;5.53;;;2.70;;
25341;SDS011;13298;48.792;9.154;2023-09-30T06:16:27;4.32;;;3.22;;
25341;SDS011;13298;48.792;9.154;2023-09-30T06:18:54;7.50;;;3.47;;
25341;SDS011;13298;48.792;9.154;2023-09-30T06:21:23;4.90;;;2.40;;
25341;SDS011;13298;48.792;9.154;2023-09-30T06:23:53;5.22;;;2.50;;
25341;SDS011;13298;48.792;9.154;2023-09-30T06:26:20;6.38;;;2.70;;
25341;SDS011;13298;48.792;9.154;2023-09-30T06:28:46;4.78;;;2.38;;
25341;SDS011;13298;48.792;9.154;2023-09-30T06:31:13;3.90;;;2.38;;
25341;SDS011;13298;48.792;9.154;2023-09-30T06:33:40;7.85;;;2.83;;
25341;SDS011;13298;48.792;9.154;2023-09-30T06:36:13;4.28;;;2.63;;
25341;SDS011;13298;48.792;9.154;2023-09-30T06:38:39;3.58;;;2.20;;
25341;SDS011;13298;48.792;9.154;2023-09-30T06:41:07;5.30;;;2.30;;
25341;SDS011;13298;48.792;9.154;2023-09-30T06:43:33;4.53;;;2.40;;
25341;SDS011;13298;48.792;9.154;2023-09-30T06:46:05;4.07;;;2.20;;
25341;SDS011;13298;48.792;9.154;2023-09-30T06:48:34;4.03;;;2.25;;
25341;SDS011;13298;48.792;9.154;2023-09-30T06:51:00;6.95;;;2.53;;
25341;SDS011;13298;48.792;9.154;2023-09-30T06:53:26;5.28;;;2.50;;
25341;SDS011;13298;48.792;9.154;2023-09-30T06:55:52;6.03;;;3.00;;
25341;SDS011;13298;48.792;9.154;2023-09-30T06:58:18;6.45;;;2.75;;
25341;SDS011;13298;48.792;9.154;2023-09-30T07:00:46;6.38;;;2.40;;
25341;SDS011;13298;48.792;9.154;2023-09-30T07:03:16;7.10;;;2.40;;
25341;SDS011;13298;48.792;9.154;2023-09-30T07:05:44;7.82;;;2.92;;
25341;SDS011;13298;48.792;9.154;2023-09-30T07:08:10;5.53;;;2.75;;
25341;SDS011;13298;48.792;9.154;2023-09-30T07:10:36;9.50;;;4.07;;
25341;SDS011;13298;48.792;9.154;2023-09-30T07:13:02;7.93;;;3.13;;
25341;SDS011;13298;48.792;9.154;2023-09-30T07:15:29;4.88;;;2.97;;
25341;SDS011;13298;48.792;9.154;2023-09-30T07:17:54;5.05;;;2.83;;
25341;SDS011;13298;48.792;9.154;2023-09-30T07:20:21;5.78;;;2.60;;
25341;SDS011;13298;48.792;9.154;2023-09-30T07:22:47;6.60;;;2.47;;
25341;SDS011;13298;48.792;9.154;2023-09-30T07:25:14;5.47;;;2.45;;
25341;SDS011;13298;48.792;9.154;2023-09-30T07:27:41;5.88;;;2.80;;
25341;SDS011;13298;48.792;9.154;2023-09-30T07:30:11;6.18;;;2.63;;
25341;SDS011;13298;48.792;9.154;2023-09-30T07:32:40;7.10;;;3.17;;
25341;SDS011;13298;48.792;9.154;2023-09-30T07:35:07;7.43;;;2.90;;
25341;SDS011;13298;48.792;9.154;2023-09-30T07:37:33;5.03;;;2.92;;
25341;SDS011;13298;48.792;9.154;2023-09-30T07:39:59;5.53;;;2.58;;
25341;SDS011;13298;48.792;9.154;2023-09-30T07:42:25;4.97;;;2.95;;
25341;SDS011;13298;48.792;9.154;2023-09-30T07:44:51;6.38;;;2.95;;
25341;SDS011;13298;48.792;9.154;2023-09-30T07:47:16;6.07;;;3.40;;
25341;SDS011;13298;48.792;9.154;2023-09-30T07:49:42;8.30;;;3.83;;
25341;SDS011;13298;48.792;9.154;2023-09-30T07:52:08;7.95;;;4.28;;
25341;SDS011;13298;48.792;9.154;2023-09-30T07:54:35;5.90;;;3.22;;
25341;SDS011;13298;48.792;9.154;2023-09-30T07:57:00;7.10;;;2.65;;
25341;SDS011;13298;48.792;9.154;2023-09-30T07:59:26;5.72;;;3.10;;
25341;SDS011;13298;48.792;9.154;2023-09-30T08:01:52;6.28;;;3.28;;
25341;SDS011;13298;48.792;9.154;2023-09-30T08:04:18;7.85;;;3.88;;
25341;SDS011;13298;48.792;9.154;2023-09-30T08:06:44;5.63;;;2.75;;
25341;SDS011;13298;48.792;9.154;2023-09-30T08:09:12;5.80;;;3.20;;
25341;SDS011;13298;48.792;9.154;2023-09-30T08:11:38;4.90;;;2.70;;
25341;SDS011;13298;48.792;9.154;2023-09-30T08:14:04;6.40;;;3.47;;
25341;SDS011;13298;48.792;9.154;2023-09-30T08:16:34;6.95;;;2.65;;
25341;SDS011;13298;48.792;9.154;2023-09-30T08:19:01;5.25;;;2.58;;
25341;SDS011;13298;48.792;9.154;2023-09-30T08:21:28;5.18;;;2.80;;
25341;SDS011;13298;48.792;9.154;2023-09-30T08:23:55;5.25;;;2.60;;
25341;SDS011;13298;48.792;9.154;2023-09-30T08:26:20;5.07;;;2.42;;
25341;SDS011;13298;48.792;9.154;2023-09-30T08:28:46;4.25;;;2.33;;
25341;SDS011;13298;48.792;9.154;2023-09-30T08:31:12;6.20;;;2.90;;
25341;SDS011;13298;48.792;9.154;2023-09-30T08:33:39;5.05;;;2.95;;
25341;SDS011;13298;48.792;9.154;2023-09-30T08:36:10;8.10;;;3.83;;
25341;SDS011;13298;48.792;9.154;2023-09-30T08:38:37;7.00;;;3.50;;
25341;SDS011;13298;48.792;9.154;2023-09-30T08:41:04;6.32;;;2.75;;
25341;SDS011;13298;48.792;9.154;2023-09-30T08:43:32;8.25;;;2.90;;
25341;SDS011;13298;48.792;9.154;2023-09-30T08:46:03;5.32;;;2.63;;
25341;SDS011;13298;48.792;9.154;2023-09-30T08:48:31;6.43;;;2.40;;
25341;SDS011;13298;48.792;9.154;2023-09-30T08:50:58;6.55;;;3.13;;
25341;SDS011;13298;48.792;9.154;2023-09-30T08:53:26;5.43;;;3.08;;
25341;SDS011;13298;48.792;9.154;2023-09-30T08:55:54;6.78;;;3.67;;
25341;SDS011;13298;48.792;9.154;2023-09-30T08:58:24;7.47;;;3.10;;
25341;SDS011;13298;48.792;9.154;2023-09-30T09:00:53;8.57;;;3.50;;
25341;SDS011;13298;48.792;9.154;2023-09-30T09:03:19;8.25;;;3.38;;
25341;SDS011;13298;48.792;9.154;2023-09-30T09:05:46;5.70;;;2.90;;
25341;SDS011;13298;48.792;9.154;2023-09-30T09:08:20;9.43;;;3.65;;
25341;SDS011;13298;48.792;9.154;2023-09-30T09:10:58;5.78;;;3.53;;
25341;SDS011;13298;48.792;9.154;2023-09-30T09:13:25;6.28;;;3.05;;
25341;SDS011;13298;48.792;9.154;2023-09-30T09:16:07;5.93;;;3.13;;
25341;SDS011;13298;48.792;9.154;2023-09-30T09:18:34;8.97;;;3.70;;
25341;SDS011;13298;48.792;9.154;2023-09-30T09:21:09;8.00;;;3.50;;
25341;SDS011;13298;48.792;9.154;2023-09-30T09:23:45;8.33;;;3.13;;
25341;SDS011;13298;48.792;9.154;2023-09-30T09:26:22;6.30;;;2.88;;
25341;SDS011;13298;48.792;9.154;2023-09-30T09:28:58;9.43;;;3.50;;
25341;SDS011;13298;48.792;9.154;2023-09-30T09:31:26;6.18;;;3.10;;
25341;SDS011;13298;48.792;9.154;2023-09-30T09:33:54;7.28;;;3.13;;
25341;SDS011;13298;48.792;9.154;2023-09-30T09:36:19;7.18;;;3.60;;
25341;SDS011;13298;48.792;9.154;2023-09-30T09:38:49;8.10;;;3.50;;
25341;SDS011;13298;48.792;9.154;2023-09-30T09:41:19;7.63;;;3.42;;
25341;SDS011;13298;48.792;9.154;2023-09-30T09:43:48;6.90;;;3.47;;
25341;SDS011;13298;48.792;9.154;2023-09-30T09:46:17;10.02;;;3.65;;
25341;SDS011;13298;48.792;9.154;2023-09-30T09:48:45;7.70;;;3.60;;
25341;SDS011;13298;48.792;9.154;2023-09-30T09:51:12;4.97;;;2.70;;
25341;SDS011;13298;48.792;9.154;2023-09-30T09:53:39;6.30;;;2.75;;
25341;SDS011;13298;48.792;9.154;2023-09-30T09:56:09;5.35;;;2.80;;
25341;SDS011;13298;48.792;9.154;2023-09-30T09:58:36;6.45;;;3.30;;
25341;SDS011;13298;48.792;9.154;2023-09-30T10:01:06;5.55;;;3.00;;
25341;SDS011;13298;48.792;9.154;2023-09-30T10:03:32;6.03;;;3.10;;
25341;SDS011;13298;48.792;9.154;2023-09-30T10:05:58;6.47;;;2.90;;
25341;SDS011;13298;48.792;9.154;2023-09-30T10:08:31;7.60;;;3.20;;
25341;SDS011;13298;48.792;9.154;2023-09-30T10:11:01;8.10;;;3.10;;
25341;SDS011;13298;48.792;9.154;2023-09-30T10:21:37;5.72;;;2.58;;
25341;SDS011;13298;48.792;9.154;2023-09-30T10:29:57;6.10;;;2.58;;
25341;SDS011;13298;48.792;9.154;2023-09-30T10:35:16;7.15;;;3.28;;
25341;SDS011;13298;48.792;9.154;2023-09-30T10:37:43;7.15;;;3.40;;
25341;SDS011;13298;48.792;9.154;2023-09-30T10:40:10;6.80;;;3.42;;
25341;SDS011;13298;48.792;9.154;2023-09-30T10:42:52;7.82;;;3.60;;
25341;SDS011;13298;48.792;9.154;2023-09-30T10:51:12;13.63;;;3.38;;
25341;SDS011;13298;48.792;9.154;2023-09-30T10:53:41;9.32;;;3.53;;
25341;SDS011;13298;48.792;9.154;2023-09-30T10:56:10;9.80;;;3.78;;
25341;SDS011;13298;48.792;9.154;2023-09-30T10:58:43;9.50;;;4.00;;
25341;SDS011;13298;48.792;9.154;2023-09-30T11:01:15;7.90;;;3.80;;
25341;SDS011;13298;48.792;9.154;2023-09-30T11:03:46;10.32;;;4.10;;
25341;SDS011;13298;48.792;9.154;2023-09-30T11:06:16;9.77;;;4.70;;
25341;SDS011;13298;48.792;9.154;2023-09-30T11:08:47;7.22;;;3.28;;
25341;SDS011;13298;48.792;9.154;2023-09-30T11:11:31;8.13;;;3.95;;
25341;SDS011;13298;48.792;9.154;2023-09-30T11:14:16;9.68;;;4.30;;
25341;SDS011;13298;48.792;9.154;2023-09-30T11:16:55;5.72;;;3.70;;
25341;SDS011;13298;48.792;9.154;2023-09-30T11:19:23;8.48;;;4.25;;
25341;SDS011;13298;48.792;9.154;2023-09-30T11:21:50;9.20;;;4.25;;
25341;SDS011;13298;48.792;9.154;2023-09-30T11:24:18;8.20;;;4.00;;
25341;SDS011;13298;48.792;9.154;2023-09-30T11:26:44;9.25;;;3.63;;
25341;SDS011;13298;48.792;9.154;2023-09-30T11:31:42;10.98;;;4.10;;
25341;SDS011;13298;48.792;9.154;2023-09-30T11:34:10;7.30;;;3.70;;
25341;SDS011;13298;48.792;9.154;2023-09-30T11:36:38;7.82;;;3.63;;
25341;SDS011;13298;48.792;9.154;2023-09-30T11:39:25;8.73;;;3.83;;
25341;SDS011;13298;48.792;9.154;2023-09-30T11:41:53;6.18;;;3.50;;
25341;SDS011;13298;48.792;9.154;2023-09-30T11:44:20;11.07;;;3.90;;
25341;SDS011;13298;48.792;9.154;2023-09-30T11:46:50;9.25;;;3.90;;
25341;SDS011;13298;48.792;9.154;2023-09-30T11:49:39;12.93;;;4.50;;
25341;SDS011;13298;48.792;9.154;2023-09-30T11:52:10;6.95;;;3.70;;
25341;SDS011;13298;48.792;9.154;2023-09-30T11:54:37;11.02;;;4.70;;
25341;SDS011;13298;48.792;9.154;2023-09-30T11:57:12;9.63;;;4.32;;
25341;SDS011;13298;48.792;9.154;2023-09-30T11:59:43;9.40;;;4.40;;
25341;SDS011;13298;48.792;9.154;2023-09-30T12:02:13;10.10;;;4.30;;
25341;SDS011;13298;48.792;9.154;2023-09-30T12:04:41;7.63;;;3.95;;
25341;SDS011;13298;48.792;9.154;2023-09-30T12:07:08;8.27;;;3.75;;
25341;SDS011;13298;48.792;9.154;2023-09-30T12:09:34;6.90;;;3.50;;
25341;SDS011;13298;48.792;9.154;2023-09-30T12:12:02;6.70;;;3.90;;
25341;SDS011;13298;48.792;9.154;2023-09-30T12:14:28;8.77;;;4.05;;
25341;SDS011;13298;48.792;9.154;2023-09-30T12:16:56;10.73;;;4.15;;
25341;SDS011;13298;48.792;9.154;2023-09-30T12:19:22;8.52;;;4.18;;
25341;SDS011;13298;48.792;9.154;2023-09-30T12:21:47;9.40;;;4.47;;
25341;SDS011;13298;48.792;9.154;2023-09-30T12:24:14;10.32;;;4.43;;
25341;SDS011;13298;48.792;9.154;2023-09-30T12:26:50;6.97;;;3.42;;
25341;SDS011;13298;48.792;9.154;2023-09-30T12:29:18;6.55;;;3.72;;
25341;SDS011;13298;48.792;9.154;2023-09-30T12:31:47;9.40;;;4.07;;
25341;SDS011;13298;48.792;9.154;2023-09-30T12:34:15;7.50;;;4.15;;
25341;SDS011;13298;48.792;9.154;2023-09-30T12:36:41;10.52;;;4.40;;
25341;SDS011;13298;48.792;9.154;2023-09-30T12:39:08;8.30;;;3.83;;
25341;SDS011;13298;48.792;9.154;2023-09-30T12:41:41;7.57;;;3.80;;
25341;SDS011;13298;48.792;9.154;2023-09-30T12:44:08;8.20;;;4.47;;
25341;SDS011;13298;48.792;9.154;2023-09-30T12:46:35;13.85;;;4.50;;
25341;SDS011;13298;48.792;9.154;2023-09-30T12:49:02;8.93;;;4.10;;
25341;SDS011;13298;48.792;9.154;2023-09-30T12:51:29;12.02;;;4.47;;
25341;SDS011;13298;48.792;9.154;2023-09-30T12:53:55;9.80;;;4.30;;
25341;SDS011;13298;48.792;9.154;2023-09-30T12:56:22;6.75;;;3.40;;
25341;SDS011;13298;48.792;9.154;2023-09-30T12:58:48;8.85;;;3.85;;
25341;SDS011;13298;48.792;9.154;2023-09-30T13:01:14;8.50;;;3.80;;
25341;SDS011;13298;48.792;9.154;2023-09-30T13:03:42;10.43;;;4.15;;
25341;SDS011;13298;48.792;9.154;2023-09-30T13:06:09;11.55;;;4.60;;
25341;SDS011;13298;48.792;9.154;2023-09-30T13:08:35;8.10;;;4.07;;
25341;SDS011;13298;48.792;9.154;2023-09-30T13:11:01;11.35;;;4.78;;
25341;SDS011;13298;48.792;9.154;2023-09-30T13:13:30;8.60;;;4.50;;
25341;SDS011;13298;48.792;9.154;2023-09-30T13:15:58;11.13;;;5.03;;
25341;SDS011;13298;48.792;9.154;2023-09-30T13:18:25;6.85;;;4.05;;
25341;SDS011;13298;48.792;9.154;2023-09-30T13:20:50;8.43;;;4.50;;
25341;SDS011;13298;48.792;9.154;2023-09-30T13:23:19;9.27;;;4.40;;
25341;SDS011;13298;48.792;9.154;2023-09-30T13:25:45;9.80;;;4.00;;
25341;SDS011;13298;48.792;9.154;2023-09-30T13:28:12;8.10;;;4.18;;
25341;SDS011;13298;48.792;9.154;2023-09-30T13:30:38;9.10;;;3.75;;
25341;SDS011;13298;48.792;9.154;2023-09-30T13:33:04;8.23;;;3.78;;
25341;SDS011;13298;48.792;9.154;2023-09-30T13:35:30;6.82;;;3.65;;
25341;SDS011;13298;48.792;9.154;2023-09-30T13:37:56;8.82;;;4.20;;
25341;SDS011;13298;48.792;9.154;2023-09-30T13:40:22;9.23;;;3.78;;
25341;SDS011;13298;48.792;9.154;2023-09-30T13:42:48;7.35;;;3.33;;
25341;SDS011;13298;48.792;9.154;2023-09-30T13:45:14;8.38;;;3.58;;
25341;SDS011;13298;48.792;9.154;2023-09-30T13:47:42;7.85;;;3.97;;
25341;SDS011;13298;48.792;9.154;2023-09-30T13:50:08;7.85;;;4.18;;
25341;SDS011;13298;48.792;9.154;2023-09-30T13:52:35;8.48;;;3.90;;
25341;SDS011;13298;48.792;9.154;2023-09-30T13:55:01;9.38;;;4.47;;
25341;SDS011;13298;48.792;9.154;2023-09-30T13:57:28;6.72;;;3.92;;
25341;SDS011;13298;48.792;9.154;2023-09-30T13:59:54;9.25;;;4.25;;
25341;SDS011;13298;48.792;9.154;2023-09-30T14:02:20;9.40;;;3.95;;
25341;SDS011;13298;48.792;9.154;2023-09-30T14:04:45;8.82;;;4.38;;
25341;SDS011;13298;48.792;9.154;2023-09-30T14:07:11;7.95;;;4.30;;
25341;SDS011;13298;48.792;9.154;2023-09-30T14:09:37;8.50;;;3.83;;
25341;SDS011;13298;48.792;9.154;2023-09-30T14:12:03;10.80;;;4.70;;
25341;SDS011;13298;48.792;9.154;2023-09-30T14:14:30;11.90;;;4.43;;
25341;SDS011;13298;48.792;9.154;2023-09-30T14:16:59;9.15;;;4.53;;
25341;SDS011;13298;48.792;9.154;2023-09-30T14:19:25;8.70;;;4.22;;
25341;SDS011;13298;48.792;9.154;2023-09-30T14:21:53;8.38;;;4.30;;
25341;SDS011;13298;48.792;9.154;2023-09-30T14:24:19;9.15;;;4.20;;
25341;SDS011;13298;48.792;9.154;2023-09-30T14:26:45;6.75;;;3.63;;
25341;SDS011;13298;48.792;9.154;2023-09-30T14:29:10;11.30;;;4.65;;
25341;SDS011;13298;48.792;9.154;2023-09-30T14:31:37;7.85;;;4.28;;
25341;SDS011;13298;48.792;9.154;2023-09-30T14:34:03;11.90;;;4.55;;
25341;SDS011;13298;48.792;9.154;2023-09-30T14:36:30;9.05;;;3.85;;
25341;SDS011;13298;48.792;9.154;2023-09-30T14:38:58;7.72;;;3.63;;
25341;SDS011;13298;48.792;9.154;2023-09-30T14:41:24;9.68;;;4.15;;
25341;SDS011;13298;48.792;9.154;2023-09-30T14:43:50;10.27;;;4.55;;
25341;SDS011;13298;48.792;9.154;2023-09-30T14:46:15;8.30;;;4.32;;
25341;SDS011;13298;48.792;9.154;2023-09-30T14:48:41;8.30;;;4.45;;
25341;SDS011;13298;48.792;9.154;2023-09-30T14:51:08;11.50;;;4.82;;
25341;SDS011;13298;48.792;9.154;2023-09-30T14:53:34;11.30;;;4.65;;
25341;SDS011;13298;48.792;9.154;2023-09-30T14:56:00;9.48;;;4.63;;
25341;SDS011;13298;48.792;9.154;2023-09-30T14:58:26;7.78;;;3.60;;
25341;SDS011;13298;48.792;9.154;2023-09-30T15:00:51;6.97;;;3.85;;
25341;SDS011;13298;48.792;9.154;2023-09-30T15:03:18;8.63;;;3.85;;
25341;SDS011;13298;48.792;9.154;2023-09-30T15:05:46;7.95;;;4.07;;
25341;SDS011;13298;48.792;9.154;2023-09-30T15:08:14;8.68;;;3.63;;
25341;SDS011;13298;48.792;9.154;2023-09-30T15:10:39;10.27;;;4.30;;
25341;SDS011;13298;48.792;9.154;2023-09-30T15:13:05;7.07;;;3.67;;